Time;durP1;ratioP1;P1;durP2;ratioP2;P2;SDS_P1;SDS_P2;PMS_P1;PMS_P2;Temp;Humidity;BMP_temperature;BMP_pressure;BME280_temperature;BME280_humidity;BME280_pressure;Samples;Min_cycle;Max_cycle;Signal;HPM_P1;HPM_P2
2023/04/10 00:00:56;;;;;;;31.77;14.10;;;;;;;4.88;100.00;101606.00;5122290;28;20030;-76
2023/04/10 00:03:26;;;;;;;29.98;14.10;;;;;;;4.90;100.00;101601.69;5105040;28;20037;-76
2023/04/10 00:05:57;;;;;;;33.47;14.18;;;;;;;4.78;100.00;101592.16;5128701;28;20642;-74
2023/04/10 00:08:27;;;;;;;30.52;13.82;;;;;;;4.75;100.00;101599.94;5117029;28;20243;-77
2023/04/10 00:10:57;;;;;;;29.92;13.35;;;;;;;4.81;100.00;101593.91;5106157;28;20019;-76
2023/04/10 00:13:29;;;;;;;31.75;14.07;;;;;;;4.74;100.00;101590.44;5122028;28;20067;-76
2023/04/10 00:15:59;;;;;;;34.13;15.40;;;;;;;4.89;100.00;101582.72;5124136;28;20029;-76
2023/04/10 00:18:29;;;;;;;33.78;14.73;;;;;;;4.91;100.00;101582.72;5121305;28;20035;-76
2023/04/10 00:21:01;;;;;;;33.63;13.95;;;;;;;4.84;100.00;101587.00;5115647;28;20030;-76
2023/04/10 00:23:33;;;;;;;31.05;14.50;;;;;;;4.82;100.00;101587.88;5119351;28;20477;-76
2023/04/10 00:26:04;;;;;;;32.58;14.45;;;;;;;4.81;100.00;101581.81;5124201;28;20533;-76
2023/04/10 00:28:36;;;;;;;33.03;14.40;;;;;;;4.86;100.00;101584.44;5129097;28;20142;-76
2023/04/10 00:31:07;;;;;;;28.85;14.00;;;;;;;4.84;100.00;101580.97;5117731;28;20030;-76
2023/04/10 00:33:37;;;;;;;33.53;14.30;;;;;;;4.84;100.00;101581.81;5126813;28;20035;-76
2023/04/10 00:36:07;;;;;;;31.02;14.68;;;;;;;4.93;100.00;101576.69;5101096;28;20369;-76
2023/04/10 00:38:38;;;;;;;29.42;13.13;;;;;;;4.94;100.00;101588.78;5122185;28;20031;-77
2023/04/10 00:41:08;;;;;;;29.60;12.95;;;;;;;5.04;100.00;101585.38;5111536;28;20099;-74
2023/04/10 00:43:38;;;;;;;36.45;13.55;;;;;;;5.01;100.00;101587.06;5122734;28;20042;-76
2023/04/10 00:46:09;;;;;;;28.75;13.30;;;;;;;5.09;100.00;101586.25;5119709;28;20038;-74
2023/04/10 00:48:40;;;;;;;28.30;13.65;;;;;;;5.17;100.00;101581.94;5084340;29;20043;-76
2023/04/10 00:51:10;;;;;;;28.02;12.98;;;;;;;5.21;100.00;101578.50;5120082;28;20031;-76
2023/04/10 00:53:41;;;;;;;26.75;12.35;;;;;;;5.35;100.00;101586.28;5105381;28;20027;-77
2023/04/10 00:56:11;;;;;;;24.15;11.10;;;;;;;5.30;100.00;101581.09;5123698;28;20030;-76
2023/04/10 00:58:42;;;;;;;25.15;11.60;;;;;;;5.18;100.00;101585.41;5105997;28;20121;-76
2023/04/10 01:01:12;;;;;;;26.50;12.05;;;;;;;5.16;100.00;101580.19;5106651;28;20050;-75
2023/04/10 01:03:43;;;;;;;26.02;12.02;;;;;;;5.03;100.00;101582.75;5132759;23;20046;-71
2023/04/10 01:06:41;;;;;;;28.25;12.52;;;;;;;4.93;100.00;101581.88;5125924;28;20192;-72
2023/04/10 01:09:19;;;;;;;24.30;11.95;;;;;;;4.96;100.00;101579.28;5124273;28;20023;-73
2023/04/10 01:11:58;;;;;;;25.10;11.77;;;;;;;4.95;100.00;101585.31;5111577;28;20085;-70
2023/04/10 01:14:55;;;;;;;28.73;11.98;;;;;;;4.88;100.00;101582.72;5091281;29;20033;-72
2023/04/10 01:17:49;;;;;;;26.40;12.05;;;;;;;4.67;100.00;101587.81;5105792;29;20028;-71
2023/04/10 01:20:29;;;;;;;32.47;13.63;;;;;;;4.58;100.00;101583.47;5082268;29;20027;-73
2023/04/10 01:23:19;;;;;;;31.60;12.98;;;;;;;4.73;100.00;101580.06;5107814;28;20048;-74
2023/04/10 01:25:58;;;;;;;33.85;14.50;;;;;;;4.88;100.00;101586.19;5105499;29;20065;-71
2023/04/10 01:28:43;;;;;;;35.03;13.85;;;;;;;4.85;100.00;101577.53;5088857;29;20031;-73
2023/04/10 01:31:22;;;;;;;28.95;13.40;;;;;;;4.74;100.00;101581.78;5107820;29;20027;-70
2023/04/10 01:33:58;;;;;;;32.85;13.63;;;;;;;4.75;100.00;101581.81;5088944;29;20059;-69
2023/04/10 01:36:35;;;;;;;28.88;13.57;;;;;;;4.72;100.00;101581.81;5091423;29;20019;-72
2023/04/10 01:39:07;;;;;;;31.38;13.13;;;;;;;4.62;100.00;101582.59;5094667;29;20030;-71
2023/04/10 01:41:40;;;;;;;31.25;13.52;;;;;;;4.57;100.00;101576.56;5111508;29;20126;-71
2023/04/10 01:44:13;;;;;;;29.65;13.27;;;;;;;4.55;100.00;101583.44;5104016;29;20027;-73
2023/04/10 01:46:45;;;;;;;29.45;13.48;;;;;;;4.51;100.00;101579.13;5102576;29;20597;-68
2023/04/10 01:49:17;;;;;;;32.72;13.20;;;;;;;4.52;100.00;101583.44;5105226;29;20028;-71
2023/04/10 01:51:48;;;;;;;30.30;13.80;;;;;;;4.57;100.00;101578.25;5111075;29;20032;-73
2023/04/10 01:54:19;;;;;;;31.90;14.10;;;;;;;4.77;100.00;101577.50;5108084;28;20027;-71
2023/04/10 01:56:50;;;;;;;29.90;13.50;;;;;;;4.88;100.00;101582.72;5105431;29;20030;-71
2023/04/10 01:59:20;;;;;;;27.13;13.65;;;;;;;4.81;100.00;101581.81;5109714;28;20708;-72
2023/04/10 02:01:58;;;;;;;30.35;12.25;;;;;;;4.75;100.00;101584.41;5105722;29;20032;-74
2023/04/10 02:04:28;;;;;;;28.83;12.63;;;;;;;4.86;100.00;101585.31;5090458;29;20283;-72
2023/04/10 02:07:02;;;;;;;28.38;13.20;;;;;;;4.86;100.00;101581.84;5090605;29;20037;-71
2023/04/10 02:09:58;;;;;;;31.40;13.30;;;;;;;4.83;100.00;101577.50;5107610;29;20126;-72
2023/04/10 02:12:32;;;;;;;27.77;13.10;;;;;;;4.64;100.00;101578.28;5105821;29;20485;-72
2023/04/10 02:15:05;;;;;;;28.48;12.52;;;;;;;4.53;100.00;101579.13;5108377;29;20070;-70
2023/04/10 02:17:38;;;;;;;24.05;11.77;;;;;;;4.60;100.00;101567.94;5108330;29;20082;-73
2023/04/10 02:20:09;;;;;;;28.98;12.65;;;;;;;4.62;100.00;101566.22;5107652;29;20023;-71
2023/04/10 02:22:42;;;;;;;28.27;12.88;;;;;;;4.53;100.00;101567.06;5110933;29;20034;-71
2023/04/10 02:25:13;;;;;;;27.27;12.95;;;;;;;4.74;100.00;101574.03;5111042;29;20445;-70
2023/04/10 02:27:44;;;;;;;30.50;12.85;;;;;;;4.64;100.00;101562.75;5106529;29;20070;-71
2023/04/10 02:30:15;;;;;;;28.40;12.27;;;;;;;4.49;100.00;101575.63;5123484;28;20023;-71
2023/04/10 02:32:45;;;;;;;30.30;12.52;;;;;;;4.47;100.00;101574.75;5107183;28;20498;-69
2023/04/10 02:35:16;;;;;;;25.98;12.43;;;;;;;4.42;100.00;101576.47;5109812;29;20062;-72
2023/04/10 02:37:46;;;;;;;30.88;13.88;;;;;;;4.43;100.00;101579.94;5106430;29;20023;-73
2023/04/10 02:40:17;;;;;;;27.85;12.63;;;;;;;4.42;100.00;101580.78;5107863;29;20519;-71
2023/04/10 02:42:47;;;;;;;31.85;13.15;;;;;;;4.43;100.00;101569.59;5105265;29;20413;-71
2023/04/10 02:45:17;;;;;;;29.67;12.82;;;;;;;4.51;100.00;101560.13;5105895;29;20047;-71
2023/04/10 02:47:48;;;;;;;30.90;13.20;;;;;;;4.51;100.00;101555.84;5105570;29;20536;-69
2023/04/10 02:50:18;;;;;;;30.02;13.75;;;;;;;4.58;100.00;101556.69;5088250;29;20079;-71
2023/04/10 02:52:48;;;;;;;28.88;13.35;;;;;;;4.60;100.00;101555.00;5108545;28;20024;-69
2023/04/10 02:55:19;;;;;;;27.40;12.98;;;;;;;4.44;100.00;101551.47;5106229;29;20023;-72
2023/04/10 02:57:50;;;;;;;28.58;12.77;;;;;;;4.28;100.00;101554.00;5106704;28;20023;-70
2023/04/10 03:00:21;;;;;;;28.08;12.70;;;;;;;4.21;100.00;101553.09;5107072;28;20106;-72
2023/04/10 03:02:52;;;;;;;30.98;13.77;;;;;;;4.24;100.00;101550.50;5108301;28;20379;-72
2023/04/10 03:05:22;;;;;;;30.38;13.85;;;;;;;4.21;100.00;101549.63;5102376;29;20062;-71
2023/04/10 03:07:53;;;;;;;29.70;14.02;;;;;;;4.28;100.00;101547.06;5106250;29;20047;-70
2023/04/10 03:10:23;;;;;;;30.23;14.13;;;;;;;4.56;100.00;101542.88;5108409;29;20031;-73
2023/04/10 03:12:53;;;;;;;31.55;13.65;;;;;;;4.36;100.00;101545.41;5107445;28;20083;-70
2023/04/10 03:15:24;;;;;;;33.50;14.43;;;;;;;4.16;100.00;101536.66;5091491;29;20058;-71
2023/04/10 03:17:55;;;;;;;29.88;13.63;;;;;;;4.12;100.00;101540.09;5111868;29;20482;-71
2023/04/10 03:20:25;;;;;;;32.95;13.98;;;;;;;4.21;100.00;101534.97;5108786;29;20179;-72
2023/04/10 03:22:56;;;;;;;34.42;13.77;;;;;;;4.19;100.00;101533.22;5108824;29;20027;-72
2023/04/10 03:25:26;;;;;;;31.17;13.50;;;;;;;4.11;100.00;101530.59;5108327;29;20065;-70
2023/04/10 03:27:57;;;;;;;33.28;14.20;;;;;;;4.14;100.00;101529.75;5097830;29;20478;-71
2023/04/10 03:30:27;;;;;;;31.23;14.35;;;;;;;4.07;100.00;101536.59;5108004;29;20035;-71
2023/04/10 03:32:57;;;;;;;34.25;14.30;;;;;;;4.10;100.00;101528.88;5110739;29;20091;-73
2023/04/10 03:35:28;;;;;;;32.42;14.93;;;;;;;4.08;100.00;101528.00;5106388;29;20027;-72
2023/04/10 03:37:58;;;;;;;31.20;13.73;;;;;;;4.12;100.00;101521.97;5106239;29;20512;-71
2023/04/10 03:40:28;;;;;;;27.85;13.55;;;;;;;4.07;100.00;101518.50;5104901;29;20034;-71
2023/04/10 03:42:59;;;;;;;27.75;12.35;;;;;;;4.00;100.00;101516.75;5110772;29;20031;-71
2023/04/10 03:45:30;;;;;;;32.70;13.85;;;;;;;4.00;100.00;101511.59;5108703;29;20031;-71
2023/04/10 03:48:00;;;;;;;31.75;13.68;;;;;;;4.01;100.00;101515.91;5108366;29;20019;-70
2023/04/10 03:50:30;;;;;;;28.50;13.07;;;;;;;4.07;100.00;101515.91;5108209;29;20081;-71
2023/04/10 03:53:01;;;;;;;32.58;15.02;;;;;;;4.21;100.00;101506.53;5107188;28;20397;-70
2023/04/10 03:55:31;;;;;;;33.95;15.00;;;;;;;4.12;100.00;101511.63;5106090;29;20040;-73
2023/04/10 03:58:01;;;;;;;30.58;13.00;;;;;;;3.88;100.00;101511.50;5104999;29;20035;-71
2023/04/10 04:00:32;;;;;;;28.00;13.30;;;;;;;3.90;100.00;101512.38;5110183;29;20158;-73
2023/04/10 04:03:03;;;;;;;32.15;12.90;;;;;;;4.04;100.00;101515.03;5106733;29;20050;-72
2023/04/10 04:05:34;;;;;;;30.67;13.27;;;;;;;4.07;100.00;101509.88;5091629;29;20070;-73
2023/04/10 04:08:05;;;;;;;29.00;12.35;;;;;;;4.00;100.00;101514.16;5107255;29;20074;-71
2023/04/10 04:10:35;;;;;;;29.40;12.85;;;;;;;3.89;100.00;101515.81;5105588;29;20618;-71
2023/04/10 04:13:06;;;;;;;30.92;13.40;;;;;;;3.79;100.00;101515.75;5107882;28;20130;-73
2023/04/10 04:15:36;;;;;;;27.02;12.75;;;;;;;3.78;100.00;101512.28;5107612;29;20445;-73
2023/04/10 04:18:08;;;;;;;27.52;12.95;;;;;;;3.80;100.00;101515.75;5106245;29;20655;-71
2023/04/10 04:20:38;;;;;;;29.50;13.05;;;;;;;3.74;100.00;101514.81;5111277;28;20037;-72
2023/04/10 04:23:09;;;;;;;28.48;13.07;;;;;;;3.63;100.00;101511.31;5107530;28;20083;-71
2023/04/10 04:25:39;;;;;;;29.05;13.00;;;;;;;3.60;100.00;101509.56;5091837;29;20077;-73
2023/04/10 04:28:12;;;;;;;30.67;13.10;;;;;;;3.67;100.00;101507.91;5109512;29;20106;-72
2023/04/10 04:30:42;;;;;;;30.42;13.45;;;;;;;3.70;100.00;101508.78;5108207;29;20020;-71
2023/04/10 04:33:13;;;;;;;26.63;12.93;;;;;;;3.81;100.00;101509.72;5103358;29;20394;-69
2023/04/10 04:35:43;;;;;;;30.77;12.98;;;;;;;3.84;100.00;101516.63;5107747;29;20613;-71
2023/04/10 04:38:15;;;;;;;31.60;13.93;;;;;;;3.91;100.00;101513.22;5092772;29;20028;-72
2023/04/10 04:40:45;;;;;;;32.85;14.40;;;;;;;4.00;100.00;101516.75;5108106;29;20560;-73
2023/04/10 04:43:16;;;;;;;31.95;13.60;;;;;;;4.05;100.00;101512.47;5107411;28;20526;-70
2023/04/10 04:45:46;;;;;;;27.75;13.25;;;;;;;3.95;100.00;101505.50;5109535;29;20031;-70
2023/04/10 04:48:16;;;;;;;28.42;12.75;;;;;;;3.99;100.00;101509.81;5104230;29;20379;-69
2023/04/10 04:50:46;;;;;;;34.70;14.20;;;;;;;3.92;100.00;101509.81;5109663;29;20031;-68
2023/04/10 04:53:17;;;;;;;29.55;13.40;;;;;;;4.05;100.00;101517.63;5106867;28;20687;-68
2023/04/10 04:55:47;;;;;;;31.58;14.10;;;;;;;4.04;100.00;101515.91;5091571;29;20034;-69
2023/04/10 04:58:19;;;;;;;30.50;13.23;;;;;;;4.07;100.00;101515.91;5106296;29;20054;-69
2023/04/10 05:00:53;;;;;;;27.85;13.02;;;;;;;3.97;100.00;101511.53;5110689;29;20163;-72
2023/04/10 05:03:23;;;;;;;30.75;13.52;;;;;;;4.06;100.00;101509.03;5101476;29;20042;-71
2023/04/10 05:05:54;;;;;;;33.28;14.35;;;;;;;4.01;100.00;101505.56;5104597;29;20023;-71
2023/04/10 05:08:25;;;;;;;29.02;13.00;;;;;;;4.03;100.00;101496.06;5101046;29;20102;-72
2023/04/10 05:10:55;;;;;;;29.80;13.02;;;;;;;4.09;100.00;101498.69;5109130;29;20033;-71
2023/04/10 05:13:26;;;;;;;30.30;13.30;;;;;;;4.27;100.00;101498.78;5106068;28;20480;-73
2023/04/10 05:15:56;;;;;;;29.15;13.55;;;;;;;4.38;100.00;101504.00;5110871;29;20114;-74
2023/04/10 05:18:27;;;;;;;33.70;14.50;;;;;;;4.40;100.00;101497.97;5085384;29;20082;-72
2023/04/10 05:20:57;;;;;;;29.30;13.18;;;;;;;4.54;100.00;101500.59;5106049;29;21116;-72
2023/04/10 05:23:27;;;;;;;30.77;13.82;;;;;;;4.65;100.00;101499.78;5108025;28;20038;-71
2023/04/10 05:25:57;;;;;;;30.83;14.18;;;;;;;5.30;100.00;101497.31;5107917;29;20061;-71
2023/04/10 05:28:28;;;;;;;26.92;12.55;;;;;;;6.30;100.00;101486.78;5107480;29;20130;-71
2023/04/10 05:30:58;;;;;;;28.35;13.07;;;;;;;6.14;100.00;101498.97;5106461;29;20027;-68
2023/04/10 05:33:28;;;;;;;25.65;12.40;;;;;;;5.96;100.00;101495.53;5107443;29;20308;-71
2023/04/10 05:35:59;;;;;;;26.95;12.82;;;;;;;5.90;100.00;101499.00;5107861;29;20103;-71
2023/04/10 05:38:29;;;;;;;26.88;12.48;;;;;;;5.92;100.00;101504.22;5102948;29;20031;-74
2023/04/10 05:40:59;;;;;;;27.20;13.35;;;;;;;5.94;100.00;101508.50;5106098;29;20512;-73
2023/04/10 05:43:30;;;;;;;26.45;12.35;;;;;;;6.00;100.00;101500.72;5105429;29;20086;-71
2023/04/10 05:46:00;;;;;;;23.27;11.88;;;;;;;6.08;100.00;101490.34;5109405;29;20035;-71
2023/04/10 05:48:30;;;;;;;25.40;12.85;;;;;;;6.26;100.00;101498.06;5090768;29;20087;-71
2023/04/10 05:51:01;;;;;;;23.50;11.13;;;;;;;6.37;100.00;101498.88;5107620;29;20039;-73
2023/04/10 05:53:31;;;;;;;26.73;11.90;;;;;;;6.45;100.00;101499.72;5102593;29;20659;-72
2023/04/10 05:56:01;;;;;;;25.30;12.73;;;;;;;6.57;100.00;101491.88;5093945;29;20035;-72
2023/04/10 05:58:32;;;;;;;26.13;12.90;;;;;;;6.68;100.00;101495.28;5103965;29;20031;-73
2023/04/10 06:01:02;;;;;;;25.27;12.32;;;;;;;6.73;100.00;101498.72;5107117;29;20036;-71
2023/04/10 06:03:33;;;;;;;26.92;12.73;;;;;;;6.87;100.00;101491.69;5101880;29;20027;-71
2023/04/10 06:06:03;;;;;;;27.30;12.15;;;;;;;6.98;100.00;101495.09;5092805;29;20297;-73
2023/04/10 06:08:34;;;;;;;26.42;12.40;;;;;;;7.13;100.00;101495.00;5103986;29;20062;-71
2023/04/10 06:11:05;;;;;;;24.25;12.45;;;;;;;7.22;100.00;101494.91;5107695;29;20024;-72
2023/04/10 06:13:35;;;;;;;26.38;12.98;;;;;;;7.32;100.00;101495.72;5109522;29;20066;-71
2023/04/10 06:16:06;;;;;;;25.17;12.45;;;;;;;7.43;100.00;101488.69;5106649;29;20748;-71
2023/04/10 06:18:37;;;;;;;24.92;12.05;;;;;;;7.52;100.00;101491.22;5105128;29;20036;-71
2023/04/10 06:21:07;;;;;;;23.25;11.80;;;;;;;7.67;100.00;101496.28;5103732;29;20038;-73
2023/04/10 06:23:38;;;;;;;26.20;13.05;;;;;;;7.85;100.00;101501.31;5105323;29;20515;-72
2023/04/10 06:26:08;;;;;;;31.95;13.20;;;;;;;7.96;100.00;101489.06;5108232;29;20110;-69
2023/04/10 06:28:39;;;;;;;22.92;11.95;;;;;;;8.12;100.00;101490.63;5101637;29;20252;-71
2023/04/10 06:31:09;;;;;;;23.48;12.10;;;;;;;8.23;100.00;101491.38;5102248;28;20031;-70
2023/04/10 06:33:39;;;;;;;24.92;12.82;;;;;;;8.50;100.00;101482.38;5105519;29;20027;-72
2023/04/10 06:36:10;;;;;;;26.10;12.75;;;;;;;8.66;100.00;101486.50;5109751;29;20058;-70
2023/04/10 06:38:40;;;;;;;27.50;12.02;;;;;;;8.88;100.00;101486.19;5105414;29;20035;-70
2023/04/10 06:41:10;;;;;;;27.13;13.07;;;;;;;9.10;100.00;101478.91;5106237;29;20493;-70
2023/04/10 06:43:41;;;;;;;23.63;12.32;;;;;;;9.33;100.00;101472.47;5104680;29;20042;-71
2023/04/10 06:46:11;;;;;;;29.00;13.10;;;;;;;9.53;99.86;101479.09;5092562;29;20042;-71
2023/04/10 06:48:41;;;;;;;25.13;12.57;;;;;;;10.19;98.28;101477.88;5106648;29;20122;-73
2023/04/10 06:51:11;;;;;;;26.02;12.85;;;;;;;11.18;92.60;101466.09;5104707;29;20039;-72
2023/04/10 06:53:42;;;;;;;22.33;12.20;;;;;;;11.93;86.00;101463.34;5107412;29;20084;-71
2023/04/10 06:56:12;;;;;;;21.65;11.40;;;;;;;12.39;84.66;101467.25;5108359;29;20027;-71
2023/04/10 06:58:42;;;;;;;20.65;11.27;;;;;;;12.67;84.61;101457.66;5107702;29;20023;-71
2023/04/10 07:01:13;;;;;;;21.63;11.40;;;;;;;12.58;84.20;101452.69;5107176;29;20037;-71
2023/04/10 07:03:43;;;;;;;20.90;11.25;;;;;;;13.47;82.18;101448.09;5140552;23;20065;-72
2023/04/10 07:06:13;;;;;;;21.45;11.00;;;;;;;14.28;78.54;101453.13;5161384;28;20085;-72
2023/04/10 07:08:44;;;;;;;21.13;11.10;;;;;;;14.44;76.21;101433.25;5154611;28;20030;-73
2023/04/10 07:11:14;;;;;;;20.90;11.32;;;;;;;14.75;74.98;101433.78;5156314;28;20109;-73
2023/04/10 07:13:44;;;;;;;20.88;11.40;;;;;;;14.51;76.71;101429.47;5157276;28;20053;-73
2023/04/10 07:16:15;;;;;;;16.48;10.13;;;;;;;15.02;75.88;101423.88;5158872;28;20439;-73
2023/04/10 07:18:46;;;;;;;16.42;9.85;;;;;;;15.88;72.03;101426.38;5154220;28;20559;-72
2023/04/10 07:21:16;;;;;;;16.67;10.25;;;;;;;15.09;71.09;101420.09;5164943;28;20498;-73
2023/04/10 07:23:46;;;;;;;18.58;10.70;;;;;;;15.01;72.27;101414.25;5163114;28;20026;-71
2023/04/10 07:26:16;;;;;;;16.27;9.07;;;;;;;15.26;71.79;101417.63;5159271;28;20587;-73
2023/04/10 07:28:47;;;;;;;14.47;8.87;;;;;;;15.70;70.22;101413.16;5154064;28;20477;-71
2023/04/10 07:31:17;;;;;;;14.77;8.77;;;;;;;16.55;68.53;101406.59;5165579;28;20365;-72
2023/04/10 07:33:47;;;;;;;13.52;8.32;;;;;;;17.35;65.00;101406.22;5156053;28;20548;-72
2023/04/10 07:36:18;;;;;;;14.25;7.85;;;;;;;18.56;62.80;101396.22;5158678;28;20106;-73
2023/04/10 07:38:48;;;;;;;13.45;8.52;;;;;;;18.93;61.99;101396.75;5168292;28;20033;-72
2023/04/10 07:41:18;;;;;;;11.07;8.05;;;;;;;18.85;61.76;101399.81;5160615;28;20109;-72
2023/04/10 07:43:49;;;;;;;15.25;8.23;;;;;;;17.30;63.56;101400.28;5152011;28;20022;-71
2023/04/10 07:46:19;;;;;;;10.63;6.90;;;;;;;17.34;63.40;101394.78;5155414;28;20031;-73
2023/04/10 07:48:50;;;;;;;10.85;7.22;;;;;;;17.99;61.54;101388.78;5152279;28;20031;-71
2023/04/10 07:51:20;;;;;;;14.35;7.70;;;;;;;17.72;62.01;101390.19;5158880;28;20331;-71
2023/04/10 07:53:51;;;;;;;10.73;7.13;;;;;;;18.36;58.99;101391.19;5155407;28;20265;-73
2023/04/10 07:56:22;;;;;;;12.10;7.30;;;;;;;18.42;57.99;101391.69;5164776;28;20094;-73
2023/04/10 07:58:52;;;;;;;10.90;6.78;;;;;;;18.78;57.74;101387.84;5150101;28;20026;-72
2023/04/10 08:01:22;;;;;;;11.18;7.10;;;;;;;19.16;56.34;101383.03;5164196;28;20052;-73
2023/04/10 08:03:54;;;;;;;10.63;6.87;;;;;;;18.94;56.78;101386.03;5163300;28;20382;-71
2023/04/10 08:06:24;;;;;;;12.07;6.65;;;;;;;18.17;59.65;101383.31;5150077;28;20308;-70
2023/04/10 08:08:55;;;;;;;13.02;6.70;;;;;;;19.11;56.19;101377.13;5158978;28;20030;-74
2023/04/10 08:11:30;;;;;;;11.10;7.20;;;;;;;19.78;56.59;101372.25;5161803;28;20085;-71
2023/04/10 08:14:02;;;;;;;9.68;6.35;;;;;;;19.91;54.19;101366.09;5155695;28;20042;-71
2023/04/10 08:16:34;;;;;;;11.13;6.65;;;;;;;19.45;54.73;101364.50;5158254;28;20506;-73
2023/04/10 08:19:04;;;;;;;10.20;6.65;;;;;;;19.53;52.99;101359.59;5158781;28;20033;-73
2023/04/10 08:21:35;;;;;;;11.63;6.80;;;;;;;20.50;53.22;101352.59;5145629;28;20034;-73
2023/04/10 08:24:05;;;;;;;10.65;7.13;;;;;;;20.42;52.39;101356.69;5160512;28;20451;-73
2023/04/10 08:26:35;;;;;;;13.38;7.32;;;;;;;20.25;53.27;101355.13;5163782;28;20027;-73
2023/04/10 08:29:05;;;;;;;11.33;7.20;;;;;;;20.81;51.76;101347.00;5147447;28;20039;-73
2023/04/10 08:31:36;;;;;;;10.90;6.90;;;;;;;21.05;51.78;101345.44;5159224;28;20498;-74
2023/04/10 08:34:06;;;;;;;11.93;7.43;;;;;;;21.63;52.10;101348.56;5132716;28;20268;-74
2023/04/10 08:36:36;;;;;;;11.38;7.00;;;;;;;22.21;50.11;101331.06;5151724;28;20314;-73
2023/04/10 08:39:07;;;;;;;10.67;6.83;;;;;;;21.59;51.67;101339.06;5153851;28;20069;-74
2023/04/10 08:41:40;;;;;;;11.48;6.75;;;;;;;22.18;50.04;101341.06;5156470;28;20309;-74
2023/04/10 08:44:10;;;;;;;11.05;7.20;;;;;;;22.11;51.28;101335.31;5158672;28;20038;-74
2023/04/10 08:46:42;;;;;;;11.13;7.65;;;;;;;22.44;50.21;101334.78;5140410;28;20024;-74
2023/04/10 08:49:53;;;;;;;11.38;7.80;;;;;;;21.09;51.79;101333.66;5159820;28;20034;-74
2023/04/10 08:52:24;;;;;;;12.27;7.40;;;;;;;21.96;52.13;101332.91;5136591;28;20121;-73
2023/04/10 08:54:56;;;;;;;10.40;7.35;;;;;;;20.81;52.66;101325.75;5153309;28;20382;-73
2023/04/10 08:57:28;;;;;;;13.40;8.27;;;;;;;21.25;51.93;101329.00;5148753;28;20027;-72
2023/04/10 08:59:59;;;;;;;11.23;7.63;;;;;;;21.69;50.52;101316.19;5159740;28;20036;-74
2023/04/10 09:02:29;;;;;;;16.25;9.95;;;;;;;21.26;52.12;101317.41;5157815;28;20577;-74
2023/04/10 09:05:02;;;;;;;12.98;7.15;;;;;;;21.98;52.80;101312.34;5161884;28;20024;-74
2023/04/10 09:07:33;;;;;;;13.38;8.93;;;;;;;22.41;52.09;101308.34;5159340;28;20034;-75
2023/04/10 09:10:04;;;;;;;16.85;10.10;;;;;;;22.46;52.28;101308.88;5157709;28;20033;-75
2023/04/10 09:12:46;;;;;;;11.23;7.68;;;;;;;22.91;51.08;101301.84;5159237;28;20034;-72
2023/04/10 09:15:16;;;;;;;11.55;7.90;;;;;;;23.30;50.27;101298.84;5153260;28;20500;-73
2023/04/10 09:18:00;;;;;;;11.27;8.15;;;;;;;22.87;51.83;101289.69;5149571;28;20064;-72
2023/04/10 09:20:31;;;;;;;13.43;8.68;;;;;;;23.31;51.35;101281.00;5154847;28;20061;-75
2023/04/10 09:23:19;;;;;;;10.55;7.60;;;;;;;23.48;50.92;101276.09;5157492;28;20423;-75
2023/04/10 09:25:49;;;;;;;12.75;7.85;;;;;;;23.19;50.86;101288.16;5142167;28;20030;-74
2023/04/10 09:28:19;;;;;;;12.18;8.27;;;;;;;21.95;52.30;101277.97;5155210;28;20049;-72
2023/04/10 09:30:49;;;;;;;10.90;7.60;;;;;;;21.00;54.43;101273.97;5157012;28;20057;-74
2023/04/10 09:33:23;;;;;;;11.50;7.37;;;;;;;20.22;56.35;101275.66;5158246;28;20902;-73
2023/04/10 09:35:57;;;;;;;13.57;8.32;;;;;;;19.81;59.26;101265.91;5145528;28;20278;-72
2023/04/10 09:38:27;;;;;;;12.98;8.52;;;;;;;19.43;58.10;101268.28;5154936;28;20063;-71
2023/04/10 09:41:07;;;;;;;13.95;8.50;;;;;;;19.13;58.14;101267.41;5147866;28;20034;-74
2023/04/10 09:43:38;;;;;;;11.75;7.53;;;;;;;18.76;58.48;101256.44;5144256;28;20042;-74
2023/04/10 09:46:08;;;;;;;12.60;8.20;;;;;;;18.65;59.98;101258.84;5143134;28;20030;-73
2023/04/10 09:48:54;;;;;;;12.45;7.80;;;;;;;18.70;60.99;101251.50;5151770;28;22020;-74
2023/04/10 09:51:33;;;;;;;13.65;7.93;;;;;;;18.68;62.09;101253.38;5147877;28;20030;-74
2023/04/10 09:54:04;;;;;;;11.43;7.30;;;;;;;18.64;59.63;101249.22;5154877;28;20041;-74
2023/04/10 09:56:37;;;;;;;12.32;7.95;;;;;;;18.82;61.48;101249.00;5151149;28;20025;-74
2023/04/10 09:59:07;;;;;;;14.75;8.45;;;;;;;18.53;60.80;101242.84;5153342;28;20042;-73
2023/04/10 10:01:38;;;;;;;13.50;7.68;;;;;;;18.04;59.60;101244.69;5157080;28;20033;-74
2023/04/10 10:04:10;;;;;;;11.30;7.50;;;;;;;17.57;59.98;101235.88;5154185;28;20042;-74
2023/04/10 10:06:40;;;;;;;11.32;7.20;;;;;;;17.87;62.74;101223.63;5151982;28;20810;-74
2023/04/10 10:09:10;;;;;;;12.63;7.65;;;;;;;18.00;62.38;101214.06;5153007;28;20046;-73
2023/04/10 10:11:41;;;;;;;13.55;7.95;;;;;;;18.20;61.21;101218.25;5154325;28;20030;-72
2023/04/10 10:14:18;;;;;;;14.80;8.52;;;;;;;17.49;60.64;101219.56;5135412;28;20093;-73
2023/04/10 10:16:53;;;;;;;12.07;7.30;;;;;;;17.46;61.01;101214.44;5156947;28;20029;-73
2023/04/10 10:19:30;;;;;;;12.23;7.47;;;;;;;17.67;62.55;101199.22;5152318;28;20485;-74
2023/04/10 10:22:01;;;;;;;14.27;8.73;;;;;;;17.94;63.64;101189.75;5165792;28;20034;-73
2023/04/10 10:24:33;;;;;;;12.73;8.30;;;;;;;17.61;60.52;101194.25;5161368;28;20054;-74
2023/04/10 10:27:08;;;;;;;12.88;7.72;;;;;;;17.45;62.63;101188.09;5160399;28;20449;-74
2023/04/10 10:29:39;;;;;;;13.10;7.90;;;;;;;17.27;63.12;101187.25;5135726;28;20314;-74
2023/04/10 10:32:12;;;;;;;13.10;7.90;;;;;;;16.75;64.06;101182.09;5148687;28;20026;-72
2023/04/10 10:34:43;;;;;;;13.55;7.82;;;;;;;17.00;64.73;101174.66;5151658;28;20411;-73
2023/04/10 10:37:16;;;;;;;14.57;8.05;;;;;;;16.85;64.36;101167.50;5158752;28;20122;-72
2023/04/10 10:39:55;;;;;;;14.35;8.18;;;;;;;16.78;65.92;101160.84;5160679;28;20043;-73
2023/04/10 10:42:33;;;;;;;16.15;8.57;;;;;;;16.66;66.42;101150.03;5137914;28;20633;-72
2023/04/10 10:45:18;;;;;;;13.73;7.20;;;;;;;17.16;64.82;101144.69;5156852;28;20080;-74
2023/04/10 10:47:52;;;;;;;12.88;7.60;;;;;;;17.21;65.24;101133.88;5157674;28;20034;-72
2023/04/10 10:50:22;;;;;;;14.18;8.18;;;;;;;16.69;66.04;101142.84;5161099;28;20046;-73
2023/04/10 10:52:56;;;;;;;13.38;7.65;;;;;;;17.21;65.36;101124.19;5136173;28;20519;-73
2023/04/10 10:55:30;;;;;;;13.15;8.05;;;;;;;16.93;65.50;101131.84;5158300;28;20073;-74
2023/04/10 10:58:04;;;;;;;15.20;7.85;;;;;;;17.10;65.74;101108.03;5158737;28;20401;-73
2023/04/10 11:01:04;;;;;;;13.00;7.18;;;;;;;17.12;65.18;101107.97;5155071;28;20068;-73
2023/04/10 11:03:34;;;;;;;14.45;7.95;;;;;;;17.23;66.35;101098.53;5159927;28;20495;-74
2023/04/10 11:06:07;;;;;;;10.98;6.78;;;;;;;17.46;63.92;101097.31;5160837;28;20044;-73
2023/04/10 11:08:43;;;;;;;11.60;6.07;;;;;;;17.67;62.79;101096.09;5152557;28;20034;-72
2023/04/10 11:11:22;;;;;;;12.02;7.15;;;;;;;17.55;62.51;101086.19;5155544;28;20062;-74
2023/04/10 11:13:54;;;;;;;12.88;7.35;;;;;;;17.38;64.31;101094.22;5157502;28;20527;-72
2023/04/10 11:16:39;;;;;;;11.32;7.03;;;;;;;17.76;64.64;101084.97;5156125;28;20039;-73
2023/04/10 11:19:15;;;;;;;14.38;7.60;;;;;;;17.80;63.54;101083.91;5158157;28;20030;-73
2023/04/10 11:22:06;;;;;;;9.32;5.20;;;;;;;17.65;59.75;101068.91;5155558;28;20580;-74
2023/04/10 11:24:58;;;;;;;9.15;5.40;;;;;;;17.31;60.72;101069.88;5156865;28;20472;-72
2023/04/10 11:27:50;;;;;;;7.65;4.53;;;;;;;17.19;59.07;101064.41;5151832;28;20034;-72
2023/04/10 11:30:32;;;;;;;6.70;4.35;;;;;;;17.41;58.44;101055.25;5153600;28;20032;-74
2023/04/10 11:33:04;;;;;;;8.38;3.45;;;;;;;17.64;57.28;101043.41;5153040;28;20049;-74
2023/04/10 11:35:35;;;;;;;5.47;3.40;;;;;;;17.72;55.29;101041.16;5153769;28;20087;-74